Dades meteomassalio
Diari Summary for Marc 4, 2017 Units:  Metric    English   Both
« Previous Day
Next Day »
Diari Semanal Mensual Anual Personalitzat
  Maxima: Minima: Mijana:
Temperatura: 12.7 °C 4.3 °C 8.3 °C
Rosada: 4.9 °C 0.5 °C 2 °C
Humitat: 89 % 46 % 66 %
Velocitat del vent: 55.5 km/h 0.0 km/h 24.8 km/h
Racha vent: 55.5 km/h - -
Vent:- - WNW
Pressio: 1013.8 hPa 998.2 hPa -
Pluja: 4.6 mm    
Historical Graphs
 
 
Tabular Data for Marc 4, 2017
Time Temperature Dew Point Pressure Wind Wind Speed Wind Gust Humidity Rainfall Rate (Hourly) solar Conditions
00:04 6.8 °C 4.9 °C 998.9 hPa WNW 38.9 km/h 38.9 km/h 88 % 2.3 mm 0.0 W/m2 RA
00:09 6.7 °C 4.8 °C 998.9 hPa West 42.6 km/h 42.6 km/h 88 % 2.3 mm 0.0 W/m2 RA
00:14 6.6 °C 4.8 °C 998.9 hPa West 31.5 km/h 31.5 km/h 88 % 2.3 mm 0.0 W/m2 RA
00:19 6.6 °C 4.7 °C 998.5 hPa WNW 30.6 km/h 30.6 km/h 88 % 2.3 mm 0.0 W/m2 RA
00:24 6.5 °C 4.7 °C 998.5 hPa West 35.2 km/h 35.2 km/h 88 % 2.3 mm 0.0 W/m2 RA
00:29 6.5 °C 4.7 °C 998.5 hPa WNW 29.6 km/h 29.6 km/h 88 % 2.3 mm 0.0 W/m2 RA
00:34 6.4 °C 4.6 °C 998.2 hPa NNW 40.7 km/h 40.7 km/h 88 % 2.8 mm 0.0 W/m2 RA
00:39 6.4 °C 4.2 °C 998.2 hPa WNW 53.7 km/h 53.7 km/h 86 % 2.8 mm 0.0 W/m2 RA
00:44 6.3 °C 4.2 °C 998.2 hPa WNW 46.3 km/h 46.3 km/h 86 % 2.3 mm 0.0 W/m2
00:49 6.3 °C 4.1 °C 998.2 hPa WNW 46.3 km/h 46.3 km/h 86 % 2.3 mm 0.0 W/m2 RA
00:54 6.2 °C 4.0 °C 998.2 hPa NW 44.4 km/h 44.4 km/h 86 % 2.3 mm 0.0 W/m2 RA
00:59 6.1 °C 4.1 °C 998.5 hPa NW 42.6 km/h 42.6 km/h 87 % 2.3 mm 0.0 W/m2 RA
01:04 5.9 °C 3.9 °C 998.9 hPa NW 50.0 km/h 50.0 km/h 87 % 2.3 mm 0.0 W/m2 RA
01:09 5.8 °C 3.8 °C 998.9 hPa NW 37.0 km/h 37.0 km/h 87 % 2.3 mm 0.0 W/m2 RA
01:14 5.8 °C 3.9 °C 998.9 hPa ENE 33.3 km/h 33.3 km/h 88 % 2.5 mm 0.0 W/m2 RA
01:19 5.7 °C 3.9 °C 998.9 hPa WNW 42.6 km/h 42.6 km/h 88 % 2.5 mm 0.0 W/m2 RA
01:24 5.8 °C 3.9 °C 998.9 hPa West 33.3 km/h 33.3 km/h 88 % 2.3 mm 0.0 W/m2
01:29 5.8 °C 3.9 °C 998.9 hPa WNW 44.4 km/h 44.4 km/h 88 % 2.3 mm 0.0 W/m2 RA
01:34 5.8 °C 3.9 °C 998.9 hPa WNW 40.7 km/h 40.7 km/h 88 % 2.0 mm 0.0 W/m2 CLR
01:39 5.8 °C 3.9 °C 998.5 hPa WNW 24.1 km/h 24.1 km/h 88 % 2.3 mm 0.0 W/m2 RA
01:44 5.8 °C 4.1 °C 998.5 hPa West 35.2 km/h 35.2 km/h 89 % 2.3 mm 0.0 W/m2 RA
01:49 5.8 °C 4.2 °C 998.5 hPa WNW 31.5 km/h 31.5 km/h 89 % 2.3 mm 0.0 W/m2 CLR
01:54 5.9 °C 4.3 °C 998.5 hPa NW 29.0 km/h 29.0 km/h 89 % 2.3 mm 0.0 W/m2 RA
01:59 6.0 °C 4.2 °C 998.5 hPa WNW 37.0 km/h 37.0 km/h 88 % 2.0 mm 0.0 W/m2
02:04 6.0 °C 4.2 °C 998.5 hPa NW 40.2 km/h 40.2 km/h 88 % 1.8 mm 0.0 W/m2 CLR
02:09 6.1 °C 4.1 °C 998.5 hPa WNW 42.6 km/h 42.6 km/h 87 % 1.8 mm 0.0 W/m2 RA
02:14 6.1 °C 4.1 °C 998.5 hPa West 37.0 km/h 37.0 km/h 87 % 1.5 mm 0.0 W/m2 CLR
02:19 6.1 °C 4.1 °C 998.5 hPa NW 35.2 km/h 35.2 km/h 87 % 1.3 mm 0.0 W/m2 CLR
02:24 6.2 °C 4.2 °C 998.9 hPa WNW 37.0 km/h 37.0 km/h 87 % 1.3 mm 0.0 W/m2 CLR
02:29 6.2 °C 4.1 °C 998.9 hPa WNW 42.6 km/h 42.6 km/h 86 % 1.0 mm 0.0 W/m2 CLR
02:34 6.3 °C 4.1 °C 998.9 hPa West 55.5 km/h 55.5 km/h 86 % 1.3 mm 0.0 W/m2 RA
02:39 6.3 °C 4.0 °C 998.9 hPa WNW 42.6 km/h 42.6 km/h 85 % 0.8 mm 0.0 W/m2 CLR
02:44 6.3 °C 4.0 °C 998.9 hPa West 44.4 km/h 44.4 km/h 85 % 0.5 mm 0.0 W/m2 CLR
02:49 6.3 °C 4.0 °C 998.9 hPa WNW 40.7 km/h 40.7 km/h 85 % 0.5 mm 0.0 W/m2 CLR
02:54 6.4 °C 3.9 °C 999.2 hPa WNW 33.3 km/h 33.3 km/h 84 % 0.5 mm 0.0 W/m2 CLR
02:59 6.3 °C 4.0 °C 998.9 hPa NW 25.9 km/h 25.9 km/h 85 % 0.5 mm 0.0 W/m2 CLR
03:04 6.3 °C 3.8 °C 998.9 hPa WNW 44.4 km/h 44.4 km/h 84 % 0.5 mm 0.0 W/m2 CLR
03:09 6.3 °C 3.8 °C 999.2 hPa NW 35.2 km/h 35.2 km/h 84 % 0.3 mm 0.0 W/m2 CLR
03:14 6.3 °C 3.8 °C 999.2 hPa WNW 37.0 km/h 37.0 km/h 84 % 0.3 mm 0.0 W/m2 CLR
03:19 6.4 °C 3.7 °C 999.2 hPa WNW 42.6 km/h 42.6 km/h 83 % 0.3 mm 0.0 W/m2 CLR
03:24 6.5 °C 3.7 °C 999.5 hPa NNW 42.6 km/h 42.6 km/h 82 % 0.3 mm 0.0 W/m2 CLR
03:29 6.6 °C 3.5 °C 999.5 hPa West 38.9 km/h 38.9 km/h 81 % 0.3 mm 0.0 W/m2 CLR
03:35 6.5 °C 3.5 °C 999.2 hPa NW 37.0 km/h 37.0 km/h 81 % 0.0 mm 0.0 W/m2 CLR
03:40 6.6 °C 3.3 °C 999.2 hPa WNW 33.3 km/h 33.3 km/h 80 % 0.0 mm 0.0 W/m2 CLR
03:45 6.6 °C 3.2 °C 999.2 hPa NW 40.7 km/h 40.7 km/h 79 % 0.0 mm 0.0 W/m2 CLR
03:50 6.6 °C 3.2 °C 999.2 hPa WNW 42.6 km/h 42.6 km/h 79 % 0.0 mm 0.0 W/m2 CLR
03:55 6.6 °C 3.2 °C 999.2 hPa NW 27.8 km/h 27.8 km/h 79 % 0.0 mm 0.0 W/m2 CLR
04:00 6.6 °C 3.1 °C 999.5 hPa WNW 48.1 km/h 48.1 km/h 78 % 0.0 mm 0.0 W/m2 CLR
04:05 6.7 °C 3.1 °C 999.5 hPa NW 29.6 km/h 29.9 km/h 78 % 0.0 mm 0.0 W/m2 CLR
04:10 6.7 °C 2.9 °C 999.5 hPa WNW 46.3 km/h 46.3 km/h 77 % 0.0 mm 0.0 W/m2 CLR
04:15 6.7 °C 2.7 °C 999.5 hPa West 40.2 km/h 40.2 km/h 76 % 0.0 mm 0.0 W/m2 CLR
04:20 6.7 °C 2.8 °C 999.9 hPa NNW 31.5 km/h 31.5 km/h 76 % 0.0 mm 0.0 W/m2 CLR
04:25 6.7 °C 2.7 °C 999.9 hPa NNW 29.6 km/h 29.6 km/h 76 % 0.0 mm 0.0 W/m2 CLR
04:30 6.7 °C 2.8 °C 999.9 hPa West 25.9 km/h 25.9 km/h 76 % 0.0 mm 0.0 W/m2 CLR
04:35 6.8 °C 2.5 °C 999.9 hPa WNW 42.6 km/h 42.6 km/h 74 % 0.0 mm 0.0 W/m2 CLR
04:40 6.8 °C 2.5 °C 1000.2 hPa NW 43.4 km/h 43.4 km/h 74 % 0.0 mm 0.0 W/m2 CLR
04:45 6.8 °C 2.4 °C 1000.2 hPa WNW 31.5 km/h 31.5 km/h 74 % 0.0 mm 0.0 W/m2 CLR
04:50 6.8 °C 2.3 °C 1000.2 hPa WNW 37.0 km/h 37.0 km/h 73 % 0.0 mm 0.0 W/m2 CLR
04:55 6.8 °C 2.3 °C 1000.6 hPa WNW 44.4 km/h 44.4 km/h 73 % 0.0 mm 0.0 W/m2 CLR
05:00 6.8 °C 2.1 °C 1000.6 hPa WNW 48.1 km/h 48.1 km/h 72 % 0.0 mm 0.0 W/m2 CLR
05:05 6.9 °C 2.2 °C 1000.9 hPa WNW 44.4 km/h 44.4 km/h 72 % 0.0 mm 0.0 W/m2 CLR
05:10 6.9 °C 2.2 °C 1000.9 hPa NNW 33.3 km/h 33.3 km/h 72 % 0.0 mm 0.0 W/m2 CLR
05:15 6.8 °C 2.1 °C 1001.2 hPa NW 29.6 km/h 29.6 km/h 72 % 0.0 mm 0.0 W/m2 CLR
05:20 6.8 °C 2.1 °C 1001.2 hPa NNW 33.3 km/h 33.3 km/h 72 % 0.0 mm 0.0 W/m2 CLR
05:25 6.8 °C 2.1 °C 1001.6 hPa NNW 25.9 km/h 25.9 km/h 72 % 0.0 mm 0.0 W/m2 CLR
05:30 6.6 °C 3.0 °C 1001.6 hPa NW 24.1 km/h 24.1 km/h 78 % 0.0 mm 0.0 W/m2 CLR
05:35 6.3 °C 3.3 °C 1001.6 hPa NW 22.2 km/h 22.2 km/h 81 % 0.0 mm 0.0 W/m2 CLR
05:40 6.2 °C 3.2 °C 1001.6 hPa NW 20.4 km/h 20.4 km/h 81 % 0.0 mm 0.0 W/m2 CLR
05:45 6.2 °C 3.0 °C 1001.6 hPa NNW 22.5 km/h 22.5 km/h 80 % 0.0 mm 0.0 W/m2 CLR
05:50 6.4 °C 2.7 °C 1001.9 hPa WNW 20.4 km/h 20.4 km/h 77 % 0.0 mm 0.0 W/m2 CLR
05:55 6.6 °C 2.1 °C 1001.9 hPa WNW 22.2 km/h 22.2 km/h 73 % 0.0 mm 0.0 W/m2 CLR
06:00 6.6 °C 1.9 °C 1001.9 hPa NW 27.4 km/h 27.4 km/h 72 % 0.0 mm 0.0 W/m2 CLR
06:05 6.7 °C 1.8 °C 1001.9 hPa WNW 35.2 km/h 35.2 km/h 71 % 0.0 mm 0.0 W/m2 CLR
06:10 6.8 °C 1.7 °C 1002.3 hPa WNW 37.0 km/h 37.0 km/h 70 % 0.0 mm 0.0 W/m2 CLR
06:15 6.8 °C 1.6 °C 1002.3 hPa WNW 37.0 km/h 37.0 km/h 69 % 0.0 mm 0.0 W/m2 CLR
06:20 6.8 °C 1.6 °C 1002.3 hPa NW 38.6 km/h 38.6 km/h 69 % 0.0 mm 0.0 W/m2 CLR
06:25 6.9 °C 1.4 °C 1002.3 hPa NW 42.6 km/h 42.6 km/h 68 % 0.0 mm 0.0 W/m2 CLR
06:30 6.8 °C 1.3 °C 1002.6 hPa NW 42.6 km/h 42.6 km/h 68 % 0.0 mm 0.0 W/m2 CLR
06:35 6.8 °C 1.3 °C 1002.6 hPa West 32.2 km/h 32.2 km/h 68 % 0.0 mm 0.0 W/m2 CLR
06:40 6.8 °C 1.1 °C 1002.6 hPa WNW 35.2 km/h 35.2 km/h 67 % 0.0 mm 0.0 W/m2 CLR
06:45 6.9 °C 1.2 °C 1002.6 hPa West 42.6 km/h 42.6 km/h 67 % 0.0 mm 0.0 W/m2 CLR
06:50 6.9 °C 1.2 °C 1002.6 hPa WNW 35.2 km/h 35.2 km/h 67 % 0.0 mm 0.0 W/m2 CLR
06:55 6.8 °C 1.1 °C 1002.9 hPa WNW 46.3 km/h 46.3 km/h 67 % 0.0 mm 0.0 W/m2 CLR
07:00 6.8 °C 0.9 °C 1002.9 hPa WNW 27.8 km/h 27.8 km/h 66 % 0.0 mm 0.0 W/m2 CLR
07:05 6.8 °C 0.9 °C 1003.3 hPa WNW 29.6 km/h 29.6 km/h 66 % 0.0 mm 0.0 W/m2 CLR
07:10 6.8 °C 0.9 °C 1003.6 hPa WNW 30.6 km/h 30.6 km/h 66 % 0.0 mm 0.0 W/m2 CLR
07:15 6.7 °C 1.0 °C 1003.6 hPa WNW 35.4 km/h 35.4 km/h 67 % 0.0 mm 0.0 W/m2 CLR
07:20 6.8 °C 0.9 °C 1003.6 hPa WNW 48.1 km/h 48.1 km/h 66 % 0.0 mm 0.0 W/m2 OVC
07:25 6.7 °C 0.9 °C 1003.9 hPa NW 29.6 km/h 29.6 km/h 67 % 0.0 mm 0.0 W/m2 OVC
07:30 6.6 °C 0.7 °C 1003.9 hPa WNW 25.9 km/h 25.9 km/h 66 % 0.0 mm 0.0 W/m2 OVC
07:35 6.6 °C 0.9 °C 1004.3 hPa West 29.0 km/h 29.0 km/h 67 % 0.0 mm 0.0 W/m2 OVC
07:40 6.5 °C 0.8 °C 1004.3 hPa NW 32.2 km/h 32.2 km/h 67 % 0.0 mm 7.0 W/m2 BKN
07:45 6.5 °C 0.8 °C 1004.3 hPa WNW 31.5 km/h 31.5 km/h 67 % 0.0 mm 11.0 W/m2 BKN
07:50 6.4 °C 0.8 °C 1004.6 hPa West 25.9 km/h 25.9 km/h 67 % 0.0 mm 16.0 W/m2 BKN
07:55 6.4 °C 0.6 °C 1004.6 hPa WNW 32.2 km/h 32.2 km/h 66 % 0.0 mm 21.0 W/m2 BKN
08:00 6.4 °C 0.5 °C 1004.6 hPa WNW 38.6 km/h 38.6 km/h 66 % 0.0 mm 26.0 W/m2 BKN
08:05 6.4 °C 0.5 °C 1005.0 hPa NW 25.9 km/h 25.9 km/h 66 % 0.0 mm 28.0 W/m2 BKN
08:11 6.4 °C 0.5 °C 1005.0 hPa West 35.4 km/h 35.4 km/h 66 % 0.0 mm 30.0 W/m2 BKN
08:15 6.5 °C 0.6 °C 1005.3 hPa WNW 31.5 km/h 31.5 km/h 66 % 0.0 mm 32.0 W/m2 BKN
08:21 6.5 °C 0.6 °C 1005.3 hPa WNW 31.5 km/h 31.5 km/h 66 % 0.0 mm 35.0 W/m2 BKN
08:26 6.4 °C 0.7 °C 1005.3 hPa NW 42.6 km/h 42.6 km/h 67 % 0.0 mm 51.0 W/m2 SCT
08:30 6.6 °C 0.7 °C 1005.3 hPa West 35.2 km/h 35.2 km/h 66 % 0.0 mm 84.0 W/m2 SCT
08:36 6.7 °C 0.8 °C 1005.6 hPa West 30.6 km/h 30.6 km/h 66 % 0.0 mm 97.0 W/m2 FEW
08:41 6.8 °C 1.1 °C 1005.6 hPa WNW 35.2 km/h 35.2 km/h 67 % 0.0 mm 121.0 W/m2 CLR
08:46 6.7 °C 0.8 °C 1005.6 hPa WNW 35.2 km/h 35.2 km/h 66 % 0.0 mm 100.0 W/m2 CLR
08:51 6.8 °C 0.9 °C 1005.6 hPa WNW 31.5 km/h 31.5 km/h 66 % 0.0 mm 183.0 W/m2 CLR
08:56 6.9 °C 1.4 °C 1006.0 hPa WSW 24.1 km/h 24.1 km/h 68 % 0.0 mm 200.0 W/m2 CLR
09:01 7.1 °C 1.4 °C 1005.6 hPa WNW 22.5 km/h 22.5 km/h 67 % 0.0 mm 221.0 W/m2 CLR
09:06 7.2 °C 1.3 °C 1006.0 hPa WNW 22.2 km/h 22.2 km/h 66 % 0.0 mm 239.0 W/m2 CLR
09:11 7.4 °C 1.7 °C 1006.0 hPa WNW 29.6 km/h 29.6 km/h 67 % 0.0 mm 257.0 W/m2 CLR
09:16 7.5 °C 1.6 °C 1006.0 hPa WNW 29.6 km/h 29.6 km/h 66 % 0.0 mm 271.0 W/m2 CLR
09:21 7.6 °C 1.7 °C 1006.0 hPa NW 27.8 km/h 27.8 km/h 66 % 0.0 mm 290.0 W/m2 CLR
09:26 7.7 °C 2.2 °C 1006.3 hPa NW 25.9 km/h 25.9 km/h 68 % 0.0 mm 304.0 W/m2 CLR
09:31 7.8 °C 2.1 °C 1006.3 hPa NW 32.2 km/h 32.2 km/h 67 % 0.0 mm 320.0 W/m2 CLR
09:36 8.0 °C 2.1 °C 1006.3 hPa WNW 37.0 km/h 37.0 km/h 66 % 0.0 mm 334.0 W/m2 CLR
09:41 8.1 °C 1.0 °C 1006.3 hPa WNW 38.9 km/h 38.9 km/h 61 % 0.0 mm 350.0 W/m2 CLR
09:46 8.2 °C 1.4 °C 1006.3 hPa WNW 37.0 km/h 37.0 km/h 62 % 0.0 mm 366.0 W/m2 CLR
09:51 8.3 °C 1.4 °C 1006.3 hPa WNW 42.6 km/h 42.6 km/h 62 % 0.0 mm 380.0 W/m2 CLR
09:56 8.5 °C 1.6 °C 1006.3 hPa NW 29.6 km/h 29.6 km/h 62 % 0.0 mm 394.0 W/m2 CLR
10:01 8.5 °C 1.2 °C 1006.3 hPa WNW 38.9 km/h 38.9 km/h 60 % 0.0 mm 408.0 W/m2 CLR
10:06 8.6 °C 1.5 °C 1006.7 hPa WNW 31.5 km/h 31.5 km/h 61 % 0.0 mm 424.0 W/m2 CLR
10:11 8.8 °C 1.4 °C 1006.7 hPa West 22.2 km/h 22.2 km/h 60 % 0.0 mm 438.0 W/m2 CLR
10:16 8.9 °C 1.1 °C 1006.7 hPa West 35.4 km/h 35.4 km/h 58 % 0.0 mm 450.0 W/m2 CLR
10:21 9.1 °C 1.5 °C 1006.7 hPa NNW 29.6 km/h 29.6 km/h 59 % 0.0 mm 462.0 W/m2 CLR
10:26 9.1 °C 1.3 °C 1006.7 hPa WNW 35.4 km/h 35.4 km/h 58 % 0.0 mm 478.0 W/m2 CLR
10:31 9.1 °C 1.4 °C 1006.7 hPa WNW 35.2 km/h 35.2 km/h 59 % 0.0 mm 517.0 W/m2 CLR
10:36 9.1 °C 1.1 °C 1007.0 hPa NW 42.6 km/h 42.6 km/h 57 % 0.0 mm 513.0 W/m2 CLR
10:41 9.2 °C 1.1 °C 1007.0 hPa WNW 42.6 km/h 42.6 km/h 57 % 0.0 mm 517.0 W/m2 CLR
10:46 9.1 °C 0.8 °C 1007.0 hPa WNW 40.7 km/h 40.7 km/h 56 % 0.0 mm 527.0 W/m2 CLR
10:51 9.3 °C 1.2 °C 1007.0 hPa NW 27.8 km/h 27.8 km/h 57 % 0.0 mm 540.0 W/m2 CLR
10:56 9.4 °C 1.3 °C 1007.0 hPa NW 33.3 km/h 33.3 km/h 57 % 0.0 mm 550.0 W/m2 CLR
11:01 9.6 °C 1.4 °C 1007.0 hPa NW 29.6 km/h 29.6 km/h 57 % 0.0 mm 563.0 W/m2 CLR
11:06 9.7 °C 1.6 °C 1007.0 hPa West 31.5 km/h 31.5 km/h 57 % 0.0 mm 548.0 W/m2 CLR
11:11 9.6 °C 1.4 °C 1007.3 hPa WNW 42.6 km/h 42.6 km/h 57 % 0.0 mm 599.0 W/m2 CLR
11:16 9.6 °C 1.4 °C 1007.3 hPa West 37.0 km/h 37.0 km/h 57 % 0.0 mm 598.0 W/m2 CLR
11:21 9.7 °C 1.1 °C 1007.3 hPa NNW 33.3 km/h 33.3 km/h 55 % 0.0 mm 615.0 W/m2 CLR
11:26 9.8 °C 1.9 °C 1007.3 hPa NW 29.0 km/h 29.0 km/h 58 % 0.0 mm 635.0 W/m2 CLR
11:31 9.9 °C 1.5 °C 1007.3 hPa NW 31.5 km/h 31.5 km/h 56 % 0.0 mm 663.0 W/m2 CLR
11:36 9.8 °C 1.4 °C 1007.3 hPa NW 35.2 km/h 35.2 km/h 56 % 0.0 mm 599.0 W/m2 CLR
11:41 9.8 °C 1.4 °C 1007.3 hPa NW 37.0 km/h 37.0 km/h 56 % 0.0 mm 622.0 W/m2 CLR
11:46 9.9 °C 1.8 °C 1007.3 hPa WNW 27.8 km/h 27.8 km/h 57 % 0.0 mm 643.0 W/m2 CLR
11:51 10.0 °C 2.1 °C 1007.3 hPa NNW 31.5 km/h 31.5 km/h 58 % 0.0 mm 657.0 W/m2 CLR
11:56 10.0 °C 1.4 °C 1007.7 hPa NW 35.4 km/h 35.4 km/h 55 % 0.0 mm 656.0 W/m2 CLR
12:01 10.1 °C 1.4 °C 1007.3 hPa NW 35.2 km/h 35.2 km/h 55 % 0.0 mm 666.0 W/m2 CLR
12:06 10.3 °C 1.4 °C 1007.3 hPa WNW 31.5 km/h 31.5 km/h 54 % 0.0 mm 675.0 W/m2 CLR
12:11 10.6 °C 2.4 °C 1007.3 hPa WNW 25.9 km/h 25.9 km/h 57 % 0.0 mm 664.0 W/m2 CLR
12:16 10.4 °C 1.7 °C 1007.3 hPa NW 40.7 km/h 40.7 km/h 55 % 0.0 mm 649.0 W/m2 CLR
12:21 10.3 °C 1.1 °C 1007.3 hPa WNW 35.2 km/h 35.2 km/h 53 % 0.0 mm 640.0 W/m2 CLR
12:26 10.4 °C 1.7 °C 1007.3 hPa WNW 38.9 km/h 38.9 km/h 55 % 0.0 mm 687.0 W/m2 CLR
12:31 10.5 °C 1.3 °C 1007.3 hPa NW 37.0 km/h 37.0 km/h 53 % 0.0 mm 686.0 W/m2 CLR
12:36 10.5 °C 0.8 °C 1007.3 hPa NW 31.5 km/h 31.5 km/h 51 % 0.0 mm 689.0 W/m2 CLR
12:41 10.6 °C 1.4 °C 1007.3 hPa WNW 40.7 km/h 40.7 km/h 53 % 0.0 mm 691.0 W/m2 CLR
12:46 10.5 °C 0.8 °C 1007.3 hPa NNW 33.3 km/h 33.3 km/h 51 % 0.0 mm 693.0 W/m2 CLR
12:51 10.6 °C 1.4 °C 1007.3 hPa NW 35.2 km/h 35.2 km/h 53 % 0.0 mm 694.0 W/m2 CLR
12:56 10.8 °C 1.6 °C 1007.0 hPa NW 31.5 km/h 31.5 km/h 53 % 0.0 mm 696.0 W/m2 CLR
13:01 10.9 °C 2.2 °C 1007.0 hPa NW 31.5 km/h 31.5 km/h 55 % 0.0 mm 698.0 W/m2 CLR
13:06 11.1 °C 1.6 °C 1007.3 hPa NW 33.8 km/h 33.8 km/h 52 % 0.0 mm 700.0 W/m2 CLR
13:11 11.1 °C 1.9 °C 1007.3 hPa NNW 30.6 km/h 30.6 km/h 53 % 0.0 mm 700.0 W/m2 CLR
13:16 11.2 °C 1.4 °C 1007.0 hPa NW 20.4 km/h 20.4 km/h 51 % 0.0 mm 703.0 W/m2 CLR
13:21 11.4 °C 1.9 °C 1007.0 hPa NNW 33.3 km/h 33.3 km/h 52 % 0.0 mm 705.0 W/m2 CLR
13:26 11.3 °C 1.8 °C 1007.0 hPa NW 27.8 km/h 27.8 km/h 52 % 0.0 mm 707.0 W/m2 CLR
13:31 11.6 °C 2.3 °C 1007.0 hPa WNW 20.4 km/h 20.6 km/h 53 % 0.0 mm 705.0 W/m2 CLR
13:36 11.6 °C 2.1 °C 1007.0 hPa NNW 25.9 km/h 25.9 km/h 52 % 0.0 mm 707.0 W/m2 CLR
13:42 11.6 °C 2.3 °C 1007.3 hPa NNW 32.2 km/h 32.2 km/h 53 % 0.0 mm 707.0 W/m2 CLR
13:47 11.5 °C 2.2 °C 1007.3 hPa WNW 27.8 km/h 27.8 km/h 53 % 0.0 mm 701.0 W/m2 CLR
13:52 11.6 °C 2.6 °C 1007.0 hPa NW 40.7 km/h 40.7 km/h 54 % 0.0 mm 700.0 W/m2 CLR
13:57 11.6 °C 2.3 °C 1007.0 hPa NW 31.5 km/h 31.5 km/h 53 % 0.0 mm 694.0 W/m2 CLR
14:02 11.7 °C 2.7 °C 1007.3 hPa WNW 31.5 km/h 31.5 km/h 54 % 0.0 mm 691.0 W/m2 CLR
14:07 11.6 °C 1.6 °C 1007.3 hPa NW 24.1 km/h 24.1 km/h 50 % 0.0 mm 686.0 W/m2 CLR
14:12 11.9 °C 2.4 °C 1007.3 hPa NNW 27.8 km/h 27.8 km/h 52 % 0.0 mm 700.0 W/m2 CLR
14:17 12.1 °C 1.4 °C 1007.3 hPa West 25.9 km/h 25.9 km/h 48 % 0.0 mm 738.0 W/m2 CLR
14:22 12.1 °C 1.4 °C 1007.3 hPa WNW 29.6 km/h 29.6 km/h 48 % 0.0 mm 737.0 W/m2 CLR
14:27 12.1 °C 1.4 °C 1007.3 hPa WNW 29.6 km/h 29.6 km/h 48 % 0.0 mm 700.0 W/m2 CLR
14:32 12.1 °C 1.7 °C 1007.0 hPa NW 31.5 km/h 31.5 km/h 49 % 0.0 mm 679.0 W/m2 CLR
14:37 12.1 °C 2.3 °C 1007.0 hPa WNW 31.5 km/h 31.5 km/h 51 % 0.0 mm 694.0 W/m2 CLR
14:42 12.1 °C 1.7 °C 1007.0 hPa NW 25.9 km/h 25.9 km/h 49 % 0.0 mm 645.0 W/m2 CLR
14:47 12.2 °C 2.6 °C 1007.0 hPa West 18.5 km/h 18.5 km/h 52 % 0.0 mm 640.0 W/m2 CLR
14:52 12.4 °C 2.5 °C 1007.0 hPa WNW 20.4 km/h 20.4 km/h 51 % 0.0 mm 629.0 W/m2 CLR
14:57 12.4 °C 3.1 °C 1007.0 hPa NW 27.8 km/h 27.8 km/h 53 % 0.0 mm 631.0 W/m2 CLR
15:02 12.3 °C 1.8 °C 1007.0 hPa West 30.6 km/h 30.6 km/h 49 % 0.0 mm 621.0 W/m2 CLR
15:07 12.1 °C 2.6 °C 1007.3 hPa NW 29.6 km/h 29.6 km/h 52 % 0.0 mm 598.0 W/m2 CLR
15:12 12.3 °C 2.9 °C 1007.0 hPa WNW 29.6 km/h 29.6 km/h 53 % 0.0 mm 594.0 W/m2 CLR
15:17 12.3 °C 1.9 °C 1007.3 hPa WNW 24.1 km/h 24.1 km/h 49 % 0.0 mm 587.0 W/m2 CLR
15:22 12.3 °C 2.2 °C 1007.3 hPa WNW 31.5 km/h 31.5 km/h 50 % 0.0 mm 214.0 W/m2 CLR
15:27 12.1 °C 2.6 °C 1007.3 hPa WNW 25.9 km/h 25.9 km/h 52 % 0.0 mm 580.0 W/m2 CLR
15:32 12.2 °C 1.2 °C 1007.0 hPa West 31.5 km/h 31.5 km/h 47 % 0.0 mm 605.0 W/m2 CLR
15:37 12.3 °C 2.2 °C 1007.0 hPa NNW 24.1 km/h 24.1 km/h 50 % 0.0 mm 476.0 W/m2 CLR
15:42 12.0 °C 1.6 °C 1007.3 hPa WNW 22.5 km/h 22.5 km/h 49 % 0.0 mm 105.0 W/m2 CLR
15:47 11.9 °C 2.1 °C 1007.3 hPa NNW 24.1 km/h 24.1 km/h 51 % 0.0 mm 592.0 W/m2 CLR
15:52 11.8 °C 1.9 °C 1007.3 hPa WNW 27.8 km/h 27.8 km/h 51 % 0.0 mm 132.0 W/m2 CLR
15:57 12.1 °C 2.2 °C 1007.3 hPa WNW 30.6 km/h 30.6 km/h 51 % 0.0 mm 519.0 W/m2 CLR
16:02 12.3 °C 1.6 °C 1007.3 hPa West 19.3 km/h 19.3 km/h 48 % 0.0 mm 512.0 W/m2 CLR
16:07 12.3 °C 1.8 °C 1007.3 hPa WNW 24.1 km/h 24.1 km/h 49 % 0.0 mm 448.0 W/m2 CLR
16:12 12.3 °C 1.6 °C 1007.3 hPa NNW 24.1 km/h 24.1 km/h 48 % 0.0 mm 473.0 W/m2 CLR
16:17 12.4 °C 1.9 °C 1007.3 hPa NNW 20.4 km/h 20.4 km/h 49 % 0.0 mm 464.0 W/m2 CLR
16:22 12.7 °C 1.9 °C 1007.3 hPa NW 24.1 km/h 24.1 km/h 48 % 0.0 mm 450.0 W/m2 CLR
16:27 12.6 °C 2.2 °C 1007.3 hPa NW 27.4 km/h 27.4 km/h 49 % 0.0 mm 436.0 W/m2 CLR
16:32 12.3 °C 2.2 °C 1007.3 hPa NNW 20.4 km/h 20.4 km/h 50 % 0.0 mm 315.0 W/m2 CLR
16:37 12.4 °C 1.9 °C 1007.7 hPa North 22.2 km/h 22.2 km/h 49 % 0.0 mm 424.0 W/m2 CLR
16:42 12.5 °C 2.3 °C 1007.3 hPa North 25.9 km/h 25.9 km/h 50 % 0.0 mm 380.0 W/m2 CLR
16:47 12.6 °C 1.8 °C 1007.7 hPa NW 24.1 km/h 24.1 km/h 48 % 0.0 mm 376.0 W/m2 CLR
16:52 12.6 °C 2.4 °C 1007.7 hPa NW 18.5 km/h 18.5 km/h 50 % 0.0 mm 343.0 W/m2 CLR
16:57 12.5 °C 1.5 °C 1007.7 hPa NNW 30.6 km/h 30.6 km/h 47 % 0.0 mm 327.0 W/m2 CLR
17:02 12.4 °C 1.7 °C 1007.7 hPa NW 25.9 km/h 25.9 km/h 48 % 0.0 mm 309.0 W/m2 CLR
17:07 12.4 °C 1.4 °C 1007.7 hPa WNW 18.5 km/h 18.5 km/h 47 % 0.0 mm 295.0 W/m2 CLR
17:12 12.3 °C 1.3 °C 1007.7 hPa NNW 33.3 km/h 33.3 km/h 47 % 0.0 mm 276.0 W/m2 CLR
17:17 12.3 °C 1.1 °C 1007.7 hPa WNW 24.1 km/h 24.1 km/h 46 % 0.0 mm 239.0 W/m2 CLR
17:22 12.3 °C 1.6 °C 1008.0 hPa West 18.5 km/h 18.5 km/h 48 % 0.0 mm 255.0 W/m2 CLR
17:27 12.3 °C 1.6 °C 1008.0 hPa NNW 22.2 km/h 22.2 km/h 48 % 0.0 mm 230.0 W/m2 CLR
17:32 12.2 °C 1.4 °C 1008.0 hPa NNW 22.2 km/h 22.2 km/h 48 % 0.0 mm 204.0 W/m2 CLR
17:37 11.9 °C 1.3 °C 1008.0 hPa NNW 22.2 km/h 22.2 km/h 48 % 0.0 mm 185.0 W/m2 CLR
17:42 11.8 °C 1.1 °C 1008.0 hPa NW 29.6 km/h 29.6 km/h 48 % 0.0 mm 174.0 W/m2 CLR
17:47 11.8 °C 1.4 °C 1008.4 hPa NNW 22.2 km/h 22.2 km/h 49 % 0.0 mm 148.0 W/m2 CLR
17:52 11.8 °C 2.0 °C 1008.4 hPa NNW 16.7 km/h 16.7 km/h 51 % 0.0 mm 127.0 W/m2 CLR
17:53 11.8 °C 2.0 °C 1008.4 hPa NNW 16.7 km/h 16.7 km/h 51 % 0.0 mm 118.0 W/m2 CLR
17:58 11.9 °C 2.1 °C 1008.4 hPa NW 11.1 km/h 11.1 km/h 51 % 0.0 mm 105.0 W/m2 CLR
18:03 11.9 °C 2.1 °C 1008.7 hPa NNW 1.9 km/h 1.9 km/h 51 % 0.0 mm 84.0 W/m2 CLR
18:08 11.6 °C 1.6 °C 1008.7 hPa NNW 16.7 km/h 16.7 km/h 50 % 0.0 mm 30.0 W/m2 BKN
18:13 11.3 °C 1.8 °C 1009.0 hPa NNW 11.1 km/h 11.1 km/h 52 % 0.0 mm 42.0 W/m2 BKN
18:18 11.1 °C 1.8 °C 1009.0 hPa North 13.0 km/h 13.0 km/h 53 % 0.0 mm 30.0 W/m2 BKN
18:23 11.0 °C 1.5 °C 1009.0 hPa NNW 13.0 km/h 13.0 km/h 52 % 0.0 mm 26.0 W/m2 BKN
18:28 11.1 °C 1.6 °C 1009.4 hPa NNW 14.8 km/h 14.8 km/h 52 % 0.0 mm 44.0 W/m2 BKN
18:33 11.2 °C 1.1 °C 1009.4 hPa NW 20.4 km/h 20.4 km/h 50 % 0.0 mm 23.0 W/m2 BKN
18:38 11.1 °C 1.0 °C 1009.4 hPa NNW 14.8 km/h 14.8 km/h 50 % 0.0 mm 14.0 W/m2 BKN
18:43 10.9 °C 1.7 °C 1009.4 hPa Calm     53 % 0.0 mm 11.0 W/m2 BKN
18:48 10.7 °C 1.4 °C 1009.4 hPa Calm     53 % 0.0 mm 5.0 W/m2 BKN
18:53 10.6 °C 1.1 °C 1009.4 hPa NW 11.1 km/h 11.1 km/h 52 % 0.0 mm 0.0 W/m2 OVC
18:58 10.4 °C 1.4 °C 1009.4 hPa NW 7.4 km/h 7.4 km/h 54 % 0.0 mm 0.0 W/m2 OVC
19:03 10.2 °C 1.3 °C 1009.4 hPa Calm     54 % 0.0 mm 0.0 W/m2 CLR
19:08 10.1 °C 1.2 °C 1009.7 hPa Calm     54 % 0.0 mm 0.0 W/m2 CLR
19:13 9.9 °C 1.3 °C 1009.7 hPa Calm     55 % 0.0 mm 0.0 W/m2 CLR
19:18 9.6 °C 1.3 °C 1009.7 hPa Calm     56 % 0.0 mm 0.0 W/m2 CLR
19:23 9.5 °C 1.2 °C 1009.7 hPa Calm     56 % 0.0 mm 0.0 W/m2 CLR
19:28 9.3 °C 1.2 °C 1009.7 hPa Calm     57 % 0.0 mm 0.0 W/m2 CLR
19:33 9.0 °C 1.7 °C 1010.0 hPa Calm     60 % 0.0 mm 0.0 W/m2 CLR
19:38 8.9 °C 1.6 °C 1010.0 hPa Calm     60 % 0.0 mm 0.0 W/m2 CLR
19:43 9.1 °C 1.2 °C 1010.0 hPa Calm     58 % 0.0 mm 0.0 W/m2 CLR
19:48 9.1 °C 1.2 °C 1010.0 hPa Calm     58 % 0.0 mm 0.0 W/m2 CLR
19:53 8.7 °C 1.4 °C 1010.0 hPa Calm     60 % 0.0 mm 0.0 W/m2 CLR
19:58 8.4 °C 1.5 °C 1010.0 hPa Calm     62 % 0.0 mm 0.0 W/m2 CLR
20:03 8.2 °C 1.6 °C 1010.4 hPa Calm     63 % 0.0 mm 0.0 W/m2 CLR
20:08 7.9 °C 1.3 °C 1010.4 hPa Calm     63 % 0.0 mm 0.0 W/m2 CLR
20:13 7.8 °C 1.4 °C 1010.4 hPa Calm     64 % 0.0 mm 0.0 W/m2 CLR
20:18 7.7 °C 1.5 °C 1010.4 hPa Calm     65 % 0.0 mm 0.0 W/m2 CLR
20:23 7.6 °C 1.4 °C 1010.4 hPa Calm     65 % 0.0 mm 0.0 W/m2 CLR
20:28 7.5 °C 1.8 °C 1010.4 hPa Calm     67 % 0.0 mm 0.0 W/m2 CLR
20:33 7.1 °C 1.6 °C 1010.4 hPa Calm     68 % 0.0 mm 0.0 W/m2 CLR
20:38 6.9 °C 1.4 °C 1010.7 hPa Calm     68 % 0.0 mm 0.0 W/m2 CLR
20:43 6.8 °C 1.7 °C 1010.7 hPa Calm     70 % 0.0 mm 0.0 W/m2 CLR
20:49 6.5 °C 1.6 °C 1011.1 hPa Calm     71 % 0.0 mm 0.0 W/m2 CLR
20:54 6.2 °C 1.6 °C 1011.1 hPa Calm     72 % 0.0 mm 0.0 W/m2 CLR
20:59 6.3 °C 1.7 °C 1011.4 hPa Calm     72 % 0.0 mm 0.0 W/m2 CLR
21:04 6.2 °C 1.7 °C 1011.4 hPa Calm     73 % 0.0 mm 0.0 W/m2 CLR
21:09 6.0 °C 1.9 °C 1011.4 hPa Calm     75 % 0.0 mm 0.0 W/m2 CLR
21:14 5.7 °C 1.6 °C 1011.7 hPa Calm     75 % 0.0 mm 0.0 W/m2 CLR
21:19 5.6 °C 1.7 °C 1011.7 hPa Calm     76 % 0.0 mm 0.0 W/m2 CLR
21:24 5.6 °C 1.7 °C 1011.7 hPa Calm     76 % 0.0 mm 0.0 W/m2 CLR
21:29 5.4 °C 1.6 °C 1011.7 hPa Calm     76 % 0.0 mm 0.0 W/m2 CLR
21:34 5.4 °C 1.7 °C 1011.7 hPa Calm     77 % 0.0 mm 0.0 W/m2 CLR
21:39 5.3 °C 1.6 °C 1011.7 hPa Calm     77 % 0.0 mm 0.0 W/m2 CLR
21:44 5.2 °C 1.7 °C 1012.1 hPa Calm     78 % 0.0 mm 0.0 W/m2 CLR
21:49 5.0 °C 1.7 °C 1012.1 hPa Calm     79 % 0.0 mm 0.0 W/m2 CLR
21:54 4.9 °C 1.6 °C 1012.4 hPa Calm     79 % 0.0 mm 0.0 W/m2 CLR
21:59 4.8 °C 1.5 °C 1012.4 hPa Calm     79 % 0.0 mm 0.0 W/m2 CLR
22:04 4.8 °C 1.5 °C 1012.4 hPa Calm     79 % 0.0 mm 0.0 W/m2 CLR
22:09 4.9 °C 1.2 °C 1012.4 hPa Calm     77 % 0.0 mm 0.0 W/m2 CLR
22:14 5.4 °C 1.3 °C 1012.8 hPa Calm     75 % 0.0 mm 0.0 W/m2 CLR
22:19 5.8 °C 1.3 °C 1012.8 hPa Calm     73 % 0.0 mm 0.0 W/m2 CLR
22:24 5.9 °C 1.2 °C 1012.8 hPa Calm     72 % 0.0 mm 0.0 W/m2 CLR
22:29 5.8 °C 1.1 °C 1012.8 hPa Calm     72 % 0.0 mm 0.0 W/m2 CLR
22:34 5.6 °C 1.2 °C 1012.8 hPa Calm     73 % 0.0 mm 0.0 W/m2 CLR
22:39 5.4 °C 1.2 °C 1012.8 hPa Calm     74 % 0.0 mm 0.0 W/m2 CLR
22:44 5.5 °C 1.2 °C 1012.8 hPa Calm     74 % 0.0 mm 0.0 W/m2 CLR
22:49 5.9 °C 1.2 °C 1012.8 hPa Calm     72 % 0.0 mm 0.0 W/m2 CLR
22:54 5.9 °C 1.1 °C 1012.8 hPa Calm     71 % 0.0 mm 0.0 W/m2 CLR
22:59 5.8 °C 1.1 °C 1012.8 hPa Calm     72 % 0.0 mm 0.0 W/m2 CLR
23:04 5.3 °C 0.9 °C 1012.8 hPa Calm     73 % 0.0 mm 0.0 W/m2 CLR
23:09 5.5 °C 1.1 °C 1012.8 hPa Calm     73 % 0.0 mm 0.0 W/m2 CLR
23:14 5.5 °C 1.1 °C 1013.1 hPa Calm     73 % 0.0 mm 0.0 W/m2 CLR
23:19 5.3 °C 1.1 °C 1013.1 hPa Calm     74 % 0.0 mm 0.0 W/m2 CLR
23:24 5.1 °C 1.2 °C 1013.1 hPa Calm     76 % 0.0 mm 0.0 W/m2 CLR
23:29 4.8 °C 0.9 °C 1013.1 hPa Calm     76 % 0.0 mm 0.0 W/m2 CLR
23:34 4.9 °C 1.0 °C 1013.4 hPa Calm     76 % 0.0 mm 0.0 W/m2 CLR
23:39 4.9 °C 1.0 °C 1013.4 hPa Calm     76 % 0.0 mm 0.0 W/m2 CLR
23:44 4.7 °C 1.0 °C 1013.4 hPa Calm     77 % 0.0 mm 0.0 W/m2 CLR
23:49 4.4 °C 0.9 °C 1013.4 hPa Calm     78 % 0.0 mm 0.0 W/m2 CLR
23:54 4.3 °C 0.9 °C 1013.4 hPa Calm     79 % 0.0 mm 0.0 W/m2 CLR
23:59 4.4 °C 0.9 °C 1013.8 hPa Calm     78 % 0.0 mm 0.0 W/m2 CLR
Lo Temps de Massalio
Compliments of Weather Underground - 1.25 mb